Terminal Aerodrome Forecast
Issued by NWS

Home | Current Version | Previous Version | Text Only | Print | Product List | Glossary On
Versions: 1 2 3 4 5 6 7 8 9 10 11 12 13 14 15
000
FTUS43 KMPX 220520
TAFRWF
TAF
KRWF 220520Z 2206/2306 28006KT P6SM SKC
     FM221200 20005KT P6SM FEW250
     FM221400 19010KT P6SM BKN250
     FM221800 19016G22KT P6SM OVC050
     FM230000 20008KT P6SM OVC050=

USA.gov is the U.S. government's official web portal to all federal, state and local government web resources and services.